createdAt,value
2023-03-18T00:01:07.623Z,3.25
2023-03-18T00:03:37.535Z,3.27
2023-03-18T00:06:06.621Z,3.29
2023-03-18T00:08:34.516Z,3.30
2023-03-18T00:11:02.222Z,3.27
2023-03-18T00:13:31.800Z,3.27
2023-03-18T00:15:59.577Z,3.28
2023-03-18T00:18:27.346Z,3.30
2023-03-18T00:20:55.077Z,3.30
2023-03-18T00:23:22.893Z,3.29
2023-03-18T00:25:53.161Z,3.26
2023-03-18T00:28:20.874Z,3.28
2023-03-18T00:30:49.975Z,3.30
2023-03-18T00:33:17.893Z,3.31
2023-03-18T00:35:46.659Z,3.28
2023-03-18T00:38:20.867Z,3.30
2023-03-18T00:41:10.983Z,3.31
2023-03-18T00:43:46.085Z,3.30
2023-03-18T00:46:16.388Z,3.31
2023-03-18T00:48:44.543Z,3.28
2023-03-18T00:51:14.150Z,3.28
2023-03-18T00:53:42.689Z,3.27
2023-03-18T00:56:10.420Z,3.28
2023-03-18T00:58:38.145Z,3.29
2023-03-18T01:01:06.362Z,3.32
2023-03-18T01:03:35.724Z,3.31
2023-03-18T01:06:04.262Z,3.35
2023-03-18T01:08:32.406Z,3.35
2023-03-18T01:11:00.388Z,3.34
2023-03-18T01:13:28.155Z,3.35
2023-03-18T01:15:56.239Z,3.35
2023-03-18T01:18:24.453Z,3.39
2023-03-18T01:20:53.462Z,3.39
2023-03-18T01:23:21.151Z,3.41
2023-03-18T01:25:49.068Z,3.43
2023-03-18T01:28:17.314Z,3.44
2023-03-18T01:30:45.132Z,3.43
2023-03-18T01:33:13.403Z,3.45
2023-03-18T01:35:41.260Z,3.50
2023-03-18T01:38:10.794Z,3.51
2023-03-18T01:40:40.844Z,3.49
2023-03-18T01:43:14.604Z,3.46
2023-03-18T01:45:43.828Z,3.49
2023-03-18T01:48:15.001Z,3.47
2023-03-18T01:50:44.828Z,3.44
2023-03-18T01:53:16.312Z,3.45
2023-03-18T01:55:45.196Z,3.44
2023-03-18T01:58:15.781Z,3.51
2023-03-18T02:00:46.050Z,3.52
2023-03-18T02:03:14.084Z,3.54
2023-03-18T02:05:43.424Z,3.52
2023-03-18T02:08:11.099Z,3.52
2023-03-18T02:10:40.306Z,3.55
2023-03-18T02:13:09.840Z,3.53
2023-03-18T02:15:39.717Z,3.55
2023-03-18T02:18:09.708Z,3.52
2023-03-18T02:20:44.365Z,3.55
2023-03-18T02:23:16.560Z,3.56
2023-03-18T02:25:49.021Z,3.56
2023-03-18T02:28:21.348Z,3.56
2023-03-18T02:30:51.118Z,3.56
2023-03-18T02:33:20.275Z,3.61
2023-03-18T02:35:48.840Z,3.61
2023-03-18T02:38:16.518Z,3.64
2023-03-18T02:40:44.227Z,3.67
2023-03-18T02:43:24.309Z,3.66
2023-03-18T02:45:56.632Z,3.72
2023-03-18T02:48:25.840Z,3.68
2023-03-18T02:50:53.971Z,3.65
2023-03-18T02:53:21.731Z,3.65
2023-03-18T02:55:49.464Z,3.65
2023-03-18T02:58:17.121Z,3.64
2023-03-18T03:00:46.128Z,3.62
2023-03-18T03:03:13.904Z,3.60
2023-03-18T03:05:42.021Z,3.57
2023-03-18T03:08:09.986Z,3.58
2023-03-18T03:10:38.053Z,3.56
2023-03-18T03:13:06.330Z,3.56
2023-03-18T03:15:34.229Z,3.55
2023-03-18T03:18:04.041Z,3.55
2023-03-18T03:20:33.701Z,3.51
2023-03-18T03:23:01.521Z,3.48
2023-03-18T03:25:30.002Z,3.48
2023-03-18T03:27:58.424Z,3.50
2023-03-18T03:30:26.273Z,3.47
2023-03-18T03:32:53.974Z,3.45
2023-03-18T03:35:25.553Z,3.47
2023-03-18T03:37:53.841Z,3.44
2023-03-18T03:40:22.180Z,3.44
2023-03-18T03:42:50.072Z,3.46
2023-03-18T03:45:19.229Z,3.48
2023-03-18T03:47:47.466Z,3.45
2023-03-18T03:50:16.046Z,3.45
2023-03-18T03:52:45.197Z,3.45
2023-03-18T03:55:14.580Z,3.45
2023-03-18T03:57:42.477Z,3.44
2023-03-18T04:00:13.430Z,3.44
2023-03-18T04:02:41.112Z,3.46
2023-03-18T04:05:09.346Z,3.46
2023-03-18T04:07:37.001Z,3.46
2023-03-18T04:10:06.559Z,3.44
2023-03-18T04:12:34.452Z,3.46
2023-03-18T04:15:02.332Z,3.48
2023-03-18T04:17:30.187Z,3.47
2023-03-18T04:19:57.935Z,3.47
2023-03-18T04:22:25.620Z,3.47
2023-03-18T04:24:53.502Z,3.49
2023-03-18T04:27:22.785Z,3.51
2023-03-18T04:29:50.503Z,3.51
2023-03-18T04:32:18.228Z,3.54
2023-03-18T04:34:46.421Z,3.55
2023-03-18T04:37:14.667Z,3.56
2023-03-18T04:39:42.808Z,3.57
2023-03-18T04:42:10.589Z,3.55
2023-03-18T04:44:39.810Z,3.56
2023-03-18T04:47:07.970Z,3.57
2023-03-18T04:49:35.667Z,3.60
2023-03-18T04:52:04.176Z,3.62
2023-03-18T04:54:32.038Z,3.63
2023-03-18T04:56:59.810Z,3.62
2023-03-18T04:59:27.573Z,3.63
2023-03-18T05:01:56.704Z,3.63
2023-03-18T05:04:24.991Z,3.62
2023-03-18T05:06:53.263Z,3.62
2023-03-18T05:09:20.924Z,3.61
2023-03-18T05:11:48.628Z,3.62
2023-03-18T05:14:16.596Z,3.63
2023-03-18T05:16:44.335Z,3.64
2023-03-18T05:19:13.987Z,3.64
2023-03-18T05:21:41.769Z,3.64
2023-03-18T05:24:10.045Z,3.63
2023-03-18T05:26:38.813Z,3.63
2023-03-18T05:29:06.605Z,3.65
2023-03-18T05:31:34.278Z,3.64
2023-03-18T05:34:01.997Z,3.65
2023-03-18T05:36:31.002Z,3.65
2023-03-18T05:38:58.691Z,3.67
2023-03-18T05:41:26.404Z,3.71
2023-03-18T05:43:54.061Z,3.70
2023-03-18T05:46:21.798Z,3.71
2023-03-18T05:48:49.549Z,3.73
2023-03-18T05:51:17.272Z,3.74
2023-03-18T05:53:46.270Z,3.75
2023-03-18T05:56:16.580Z,3.74
2023-03-18T05:58:44.246Z,3.75
2023-03-18T06:01:14.147Z,3.77
2023-03-18T06:03:42.840Z,3.77
2023-03-18T06:06:11.469Z,3.76
2023-03-18T06:08:39.135Z,3.78
2023-03-18T06:11:08.193Z,3.77
2023-03-18T06:13:36.457Z,3.80
2023-03-18T06:16:04.888Z,3.82
2023-03-18T06:18:32.546Z,3.81
2023-03-18T06:21:00.212Z,3.84
2023-03-18T06:23:27.876Z,3.87
2023-03-18T06:25:55.573Z,3.87
2023-03-18T06:28:24.817Z,3.89
2023-03-18T06:30:52.454Z,3.91
2023-03-18T06:33:20.147Z,3.95
2023-03-18T06:35:49.372Z,3.95
2023-03-18T06:38:17.627Z,4.00
2023-03-18T06:40:45.459Z,4.04
2023-03-18T06:43:13.169Z,4.06
2023-03-18T06:45:42.244Z,4.08
2023-03-18T06:48:10.428Z,4.07
2023-03-18T06:50:39.647Z,4.07
2023-03-18T06:53:07.461Z,4.09
2023-03-18T06:55:35.716Z,4.11
2023-03-18T06:58:03.638Z,4.11
2023-03-18T07:00:31.960Z,4.11
2023-03-18T07:03:01.467Z,4.14
2023-03-18T07:05:29.235Z,4.16
2023-03-18T07:07:56.908Z,4.19
2023-03-18T07:10:28.049Z,4.19
2023-03-18T07:12:55.839Z,4.19
2023-03-18T07:15:24.152Z,4.20
2023-03-18T07:17:52.299Z,4.19
2023-03-18T07:20:22.709Z,4.23
2023-03-18T07:22:51.490Z,4.24
2023-03-18T07:25:21.694Z,4.26
2023-03-18T07:27:50.127Z,4.28
2023-03-18T07:30:18.850Z,4.31
2023-03-18T07:32:46.981Z,4.35
2023-03-18T07:35:15.086Z,4.39
2023-03-18T07:37:44.186Z,4.39
2023-03-18T07:40:13.152Z,4.42
2023-03-18T07:42:40.883Z,4.43
2023-03-18T07:45:09.375Z,4.44
2023-03-18T07:47:37.181Z,4.45
2023-03-18T07:50:05.808Z,4.48
2023-03-18T07:52:35.737Z,4.47
2023-03-18T07:55:05.299Z,4.50
2023-03-18T07:57:33.033Z,4.51
2023-03-18T08:00:00.788Z,4.53
2023-03-18T08:02:28.796Z,4.55
2023-03-18T08:04:56.751Z,4.54
2023-03-18T08:07:24.570Z,4.54
2023-03-18T08:09:52.460Z,4.53
2023-03-18T08:12:21.601Z,4.53
2023-03-18T08:14:50.147Z,4.48
2023-03-18T08:17:18.006Z,4.50
2023-03-18T08:19:47.033Z,4.49
2023-03-18T08:22:15.233Z,4.49
2023-03-18T08:24:45.398Z,4.47
2023-03-18T08:27:13.151Z,4.48
2023-03-18T08:29:42.212Z,4.47
2023-03-18T08:32:10.295Z,4.48
2023-03-18T08:34:38.292Z,4.49
2023-03-18T08:37:07.463Z,4.47
2023-03-18T08:39:35.131Z,4.51
2023-03-18T08:42:04.310Z,4.53
2023-03-18T08:44:32.836Z,4.54
2023-03-18T08:47:01.975Z,4.57
2023-03-18T08:49:29.703Z,4.59
2023-03-18T08:51:57.597Z,4.61
2023-03-18T08:54:25.284Z,4.56
2023-03-18T08:56:55.243Z,4.55
2023-03-18T08:59:22.944Z,4.53
2023-03-18T09:01:50.596Z,4.53
2023-03-18T09:04:20.179Z,4.56
2023-03-18T09:06:48.731Z,4.55
2023-03-18T09:09:16.822Z,4.56
2023-03-18T09:11:46.394Z,4.57
2023-03-18T09:14:14.147Z,4.62
2023-03-18T09:16:41.798Z,4.63
2023-03-18T09:19:09.466Z,4.62
2023-03-18T09:21:38.943Z,4.63
2023-03-18T09:24:07.574Z,4.63
2023-03-18T09:26:35.465Z,4.62
2023-03-18T09:29:03.108Z,4.63
2023-03-18T09:31:30.839Z,4.62
2023-03-18T09:33:58.708Z,4.61
2023-03-18T09:36:26.365Z,4.61
2023-03-18T09:38:55.414Z,4.62
2023-03-18T09:41:29.834Z,4.63
2023-03-18T09:44:03.582Z,4.66
2023-03-18T09:46:38.677Z,4.68
2023-03-18T09:49:21.192Z,4.71
2023-03-18T09:51:54.868Z,4.73
2023-03-18T09:54:30.748Z,4.76
2023-03-18T09:56:59.065Z,4.79
2023-03-18T09:59:30.726Z,4.77
2023-03-18T10:01:58.709Z,4.79
2023-03-18T10:04:27.868Z,4.81
2023-03-18T10:06:58.445Z,4.83
2023-03-18T10:09:29.100Z,4.80
2023-03-18T10:12:00.858Z,4.81
2023-03-18T10:14:36.268Z,4.82
2023-03-18T10:17:09.415Z,4.83
2023-03-18T10:19:37.666Z,4.82
2023-03-18T10:22:13.792Z,4.83
2023-03-18T10:24:47.706Z,4.88
2023-03-18T10:27:19.317Z,4.87
2023-03-18T10:29:50.291Z,4.89
2023-03-18T10:32:27.823Z,4.91
2023-03-18T10:35:05.021Z,4.96
2023-03-18T10:37:38.333Z,4.96
2023-03-18T10:40:13.650Z,5.00
2023-03-18T10:42:41.710Z,5.05
2023-03-18T10:45:18.583Z,5.01
2023-03-18T10:47:47.254Z,5.02
2023-03-18T10:50:18.600Z,5.06
2023-03-18T10:52:49.126Z,5.06
2023-03-18T10:55:19.069Z,5.07
2023-03-18T10:57:46.740Z,5.08
2023-03-18T11:00:22.801Z,5.03
2023-03-18T11:02:50.678Z,5.08
2023-03-18T11:05:23.415Z,5.11
2023-03-18T11:07:57.747Z,5.11
2023-03-18T11:10:27.858Z,5.14
2023-03-18T11:13:00.157Z,5.14
2023-03-18T11:15:28.289Z,5.13
2023-03-18T11:17:59.494Z,5.18
2023-03-18T11:20:37.453Z,5.23
2023-03-18T11:23:12.788Z,5.29
2023-03-18T11:25:46.668Z,5.27
2023-03-18T11:28:21.018Z,5.29
2023-03-18T11:30:49.818Z,5.34
2023-03-18T11:33:18.280Z,5.34
2023-03-18T11:35:48.403Z,5.35
2023-03-18T11:38:18.570Z,5.33
2023-03-18T11:40:47.848Z,5.36
2023-03-18T11:43:18.751Z,5.35
2023-03-18T11:45:55.158Z,5.36
2023-03-18T11:48:30.543Z,5.38
2023-03-18T11:51:23.114Z,5.42
2023-03-18T11:54:04.643Z,5.48
2023-03-18T11:56:36.125Z,5.46
2023-03-18T11:59:14.754Z,5.46
2023-03-18T12:01:47.271Z,5.47
2023-03-18T12:04:23.888Z,5.48
2023-03-18T12:07:01.426Z,5.50
2023-03-18T12:09:32.923Z,5.49
2023-03-18T12:12:07.632Z,5.46
2023-03-18T12:14:38.918Z,5.46
2023-03-18T12:17:16.058Z,5.46
2023-03-18T12:19:57.596Z,5.46
2023-03-18T12:22:32.137Z,5.42
2023-03-18T12:25:08.107Z,5.37
2023-03-18T12:27:43.069Z,5.33
2023-03-18T12:30:20.486Z,5.35
2023-03-18T12:32:51.907Z,5.35
2023-03-18T12:35:34.715Z,5.35
2023-03-18T12:38:17.368Z,5.37
2023-03-18T12:40:50.932Z,5.36
2023-03-18T12:43:37.464Z,5.36
2023-03-18T12:46:10.805Z,5.30
2023-03-18T12:48:44.855Z,5.33
2023-03-18T12:51:16.329Z,5.33
2023-03-18T12:53:45.585Z,5.36
2023-03-18T12:56:15.113Z,5.42
2023-03-18T12:58:47.348Z,5.46
2023-03-18T13:01:18.375Z,5.46
2023-03-18T13:03:48.025Z,5.49
2023-03-18T13:06:18.791Z,5.49
2023-03-18T13:08:55.942Z,5.52
2023-03-18T13:11:42.067Z,5.56
2023-03-18T13:14:15.593Z,5.56
2023-03-18T13:16:43.421Z,5.52
2023-03-18T13:19:12.336Z,5.49
2023-03-18T13:21:42.245Z,5.48
2023-03-18T13:24:21.405Z,5.51
2023-03-18T13:26:57.068Z,5.49
2023-03-18T13:29:31.752Z,5.46
2023-03-18T13:32:05.457Z,5.43
2023-03-18T13:34:54.735Z,5.43
2023-03-18T13:37:30.701Z,5.40
2023-03-18T13:40:05.773Z,5.37
2023-03-18T13:42:36.126Z,5.39
2023-03-18T13:45:08.731Z,5.36
2023-03-18T13:47:38.553Z,5.37
2023-03-18T13:50:08.534Z,5.38
2023-03-18T13:52:38.153Z,5.39
2023-03-18T13:55:07.686Z,5.37
2023-03-18T13:57:48.972Z,5.37
2023-03-18T14:00:38.399Z,5.35
2023-03-18T14:03:15.986Z,5.37
2023-03-18T14:05:45.201Z,5.34
2023-03-18T14:08:30.677Z,5.31
2023-03-18T14:11:26.009Z,5.32
2023-03-18T14:13:54.947Z,5.28
2023-03-18T14:16:24.082Z,5.27
2023-03-18T14:18:57.223Z,5.28
2023-03-18T14:21:26.921Z,5.26
2023-03-18T14:24:10.737Z,5.26
2023-03-18T14:26:38.805Z,5.25
2023-03-18T14:29:17.142Z,5.24
2023-03-18T14:31:52.194Z,5.22
2023-03-18T14:34:28.924Z,5.20
2023-03-18T14:37:09.305Z,5.18
2023-03-18T14:39:39.257Z,5.19
2023-03-18T14:42:13.665Z,5.18
2023-03-18T14:44:44.229Z,5.19
2023-03-18T14:47:35.710Z,5.20
2023-03-18T14:50:14.183Z,5.21
2023-03-18T14:52:43.525Z,5.20
2023-03-18T14:55:18.327Z,5.21
2023-03-18T14:57:46.312Z,5.20
2023-03-18T15:00:15.595Z,5.21
2023-03-18T15:02:44.847Z,5.21
2023-03-18T15:05:17.052Z,5.19
2023-03-18T15:07:45.439Z,5.18
2023-03-18T15:10:15.365Z,5.14
2023-03-18T15:12:43.018Z,5.14
2023-03-18T15:15:14.810Z,5.09
2023-03-18T15:17:46.771Z,5.08
2023-03-18T15:20:16.981Z,5.06
2023-03-18T15:22:45.110Z,5.07
2023-03-18T15:25:18.151Z,5.08
2023-03-18T15:27:46.715Z,5.06
2023-03-18T15:30:27.978Z,5.06
2023-03-18T15:33:06.663Z,5.09
2023-03-18T15:35:36.231Z,5.11
2023-03-18T15:38:08.087Z,5.08
2023-03-18T15:40:36.827Z,5.05
2023-03-18T15:43:06.081Z,5.05
2023-03-18T15:45:34.307Z,5.04
2023-03-18T15:48:08.090Z,5.01
2023-03-18T15:50:37.343Z,5.00
2023-03-18T15:53:06.669Z,4.99
2023-03-18T15:55:35.814Z,4.98
2023-03-18T15:58:05.593Z,4.96
2023-03-18T16:00:33.661Z,4.94
2023-03-18T16:03:01.470Z,4.93
2023-03-18T16:05:29.721Z,4.94
2023-03-18T16:07:59.491Z,4.97
2023-03-18T16:10:27.850Z,4.93
2023-03-18T16:12:58.149Z,4.90
2023-03-18T16:15:27.875Z,4.92
2023-03-18T16:17:56.611Z,4.89
2023-03-18T16:20:25.692Z,4.83
2023-03-18T16:22:53.572Z,4.82
2023-03-18T16:25:23.748Z,4.83
2023-03-18T16:27:51.990Z,4.82
2023-03-18T16:30:20.362Z,4.85
2023-03-18T16:32:48.409Z,4.85
2023-03-18T16:35:16.884Z,4.84
2023-03-18T16:37:45.104Z,4.80
2023-03-18T16:40:17.317Z,4.76
2023-03-18T16:42:47.943Z,4.74
2023-03-18T16:45:17.425Z,4.72
2023-03-18T16:47:46.129Z,4.74
2023-03-18T16:50:18.452Z,4.73
2023-03-18T16:52:46.201Z,4.72
2023-03-18T16:55:14.713Z,4.70
2023-03-18T16:57:48.332Z,4.67
2023-03-18T17:00:20.572Z,4.65
2023-03-18T17:02:48.234Z,4.64
2023-03-18T17:05:16.795Z,4.64
2023-03-18T17:07:44.680Z,4.63
2023-03-18T17:10:12.644Z,4.64
2023-03-18T17:12:41.501Z,4.62
2023-03-18T17:15:12.638Z,4.62
2023-03-18T17:17:42.004Z,4.59
2023-03-18T17:20:16.366Z,4.62
2023-03-18T17:22:45.126Z,4.61
2023-03-18T17:25:12.846Z,4.60
2023-03-18T17:27:43.993Z,4.60
2023-03-18T17:30:16.737Z,4.59
2023-03-18T17:32:46.355Z,4.58
2023-03-18T17:35:15.773Z,4.57
2023-03-18T17:37:43.471Z,4.54
2023-03-18T17:40:12.229Z,4.52
2023-03-18T17:42:40.342Z,4.51
2023-03-18T17:45:10.322Z,4.50
2023-03-18T17:47:38.143Z,4.49
2023-03-18T17:50:07.614Z,4.50
2023-03-18T17:52:35.327Z,4.49
2023-03-18T17:55:02.937Z,4.48
2023-03-18T17:57:31.981Z,4.47
2023-03-18T17:59:59.654Z,4.47
2023-03-18T18:02:27.326Z,4.41
2023-03-18T18:04:55.011Z,4.42
2023-03-18T18:07:24.111Z,4.42
2023-03-18T18:09:52.476Z,4.41
2023-03-18T18:12:22.983Z,4.41
2023-03-18T18:14:51.104Z,4.41
2023-03-18T18:17:19.157Z,4.40
2023-03-18T18:19:47.326Z,4.41
2023-03-18T18:22:16.277Z,4.39
2023-03-18T18:24:47.017Z,4.39
2023-03-18T18:27:15.074Z,4.38
2023-03-18T18:29:43.567Z,4.37
2023-03-18T18:32:11.407Z,4.33
2023-03-18T18:34:39.388Z,4.35
2023-03-18T18:37:07.840Z,4.34
2023-03-18T18:39:35.606Z,4.34
2023-03-18T18:42:05.146Z,4.33
2023-03-18T18:44:33.831Z,4.34
2023-03-18T18:47:01.522Z,4.36
2023-03-18T18:49:29.214Z,4.36
2023-03-18T18:51:57.084Z,4.37
2023-03-18T18:54:25.393Z,4.35
2023-03-18T18:56:53.418Z,4.34
2023-03-18T18:59:24.942Z,4.35
2023-03-18T19:01:52.712Z,4.34
2023-03-18T19:04:21.818Z,4.33
2023-03-18T19:06:50.965Z,4.29
2023-03-18T19:09:19.649Z,4.28
2023-03-18T19:11:47.679Z,4.24
2023-03-18T19:14:19.575Z,4.22
2023-03-18T19:16:49.291Z,4.23
2023-03-18T19:19:19.044Z,4.22
2023-03-18T19:21:47.116Z,4.21
2023-03-18T19:24:26.804Z,4.18
2023-03-18T19:26:55.407Z,4.19
2023-03-18T19:29:23.447Z,4.17
2023-03-18T19:31:52.806Z,4.16
2023-03-18T19:34:21.572Z,4.17
2023-03-18T19:36:50.220Z,4.16
2023-03-18T19:39:18.925Z,4.14
2023-03-18T19:41:47.337Z,4.15
2023-03-18T19:44:16.542Z,4.17
2023-03-18T19:46:44.786Z,4.20
2023-03-18T19:49:19.276Z,4.20
2023-03-18T19:51:47.000Z,4.21
2023-03-18T19:54:23.781Z,4.22
2023-03-18T19:56:52.491Z,4.24
2023-03-18T19:59:21.220Z,4.22
2023-03-18T20:01:49.145Z,4.19
2023-03-18T20:04:19.715Z,4.16
2023-03-18T20:06:48.572Z,4.16
2023-03-18T20:09:17.701Z,4.16
2023-03-18T20:11:45.984Z,4.15
2023-03-18T20:14:25.487Z,4.16
2023-03-18T20:16:53.639Z,4.16
2023-03-18T20:19:22.876Z,4.16
2023-03-18T20:21:50.674Z,4.16
2023-03-18T20:24:20.668Z,4.11
2023-03-18T20:26:48.325Z,4.10
2023-03-18T20:29:17.009Z,4.09
2023-03-18T20:31:44.951Z,4.08
2023-03-18T20:34:12.724Z,4.06
2023-03-18T20:36:42.296Z,4.05
2023-03-18T20:39:14.316Z,4.04
2023-03-18T20:41:41.922Z,4.01
2023-03-18T20:44:12.238Z,4.00
2023-03-18T20:46:42.823Z,4.02
2023-03-18T20:49:10.663Z,4.01
2023-03-18T20:51:40.779Z,4.02
2023-03-18T20:54:17.655Z,4.02
2023-03-18T20:56:45.413Z,4.02
2023-03-18T20:59:13.739Z,3.98
2023-03-18T21:01:41.545Z,3.97
2023-03-18T21:04:12.701Z,3.96
2023-03-18T21:06:40.400Z,3.96
2023-03-18T21:09:10.146Z,3.94
2023-03-18T21:11:39.257Z,3.94
2023-03-18T21:14:06.974Z,3.94
2023-03-18T21:16:37.693Z,3.95
2023-03-18T21:19:05.716Z,3.95
2023-03-18T21:21:35.917Z,3.91
2023-03-18T21:24:04.190Z,3.89
2023-03-18T21:26:31.842Z,3.90
2023-03-18T21:29:01.040Z,3.91
2023-03-18T21:31:31.164Z,3.94
2023-03-18T21:33:58.881Z,3.93
2023-03-18T21:36:27.126Z,3.92
2023-03-18T21:38:54.790Z,3.93
2023-03-18T21:41:23.711Z,3.92
2023-03-18T21:43:51.908Z,3.89
2023-03-18T21:46:22.639Z,3.87
2023-03-18T21:48:50.906Z,3.84
2023-03-18T21:51:37.508Z,3.84
2023-03-18T21:54:06.295Z,3.87
2023-03-18T21:56:34.098Z,3.87
2023-03-18T21:59:01.779Z,3.88
2023-03-18T22:01:32.321Z,3.88
2023-03-18T22:04:00.412Z,3.88
2023-03-18T22:06:28.193Z,3.89
2023-03-18T22:08:56.872Z,3.88
2023-03-18T22:11:24.518Z,3.89
2023-03-18T22:13:52.256Z,3.89
2023-03-18T22:16:20.027Z,3.89
2023-03-18T22:18:49.220Z,3.90
2023-03-18T22:21:20.076Z,3.90
2023-03-18T22:23:47.878Z,3.89
2023-03-18T22:26:16.335Z,3.88
2023-03-18T22:28:44.470Z,3.85
2023-03-18T22:31:18.170Z,3.85
2023-03-18T22:33:46.653Z,3.84
2023-03-18T22:36:16.751Z,3.85
2023-03-18T22:38:44.550Z,3.82
2023-03-18T22:41:17.245Z,3.81
2023-03-18T22:43:45.027Z,3.81
2023-03-18T22:46:12.795Z,3.79
2023-03-18T22:48:40.569Z,3.81
2023-03-18T22:51:08.521Z,3.84
2023-03-18T22:53:39.008Z,3.86
2023-03-18T22:56:12.013Z,3.90
2023-03-18T22:58:39.906Z,3.87
2023-03-18T23:01:07.752Z,3.87
2023-03-18T23:03:37.181Z,3.84
2023-03-18T23:06:05.327Z,3.82
2023-03-18T23:08:33.240Z,3.80
2023-03-18T23:11:02.707Z,3.80
2023-03-18T23:13:31.716Z,3.81
2023-03-18T23:15:59.620Z,3.83
2023-03-18T23:18:27.344Z,3.81
2023-03-18T23:20:55.252Z,3.80
2023-03-18T23:23:23.055Z,3.81
2023-03-18T23:25:52.421Z,3.80
2023-03-18T23:28:21.550Z,3.82
2023-03-18T23:30:50.249Z,3.80
2023-03-18T23:33:18.287Z,3.80
2023-03-18T23:35:47.275Z,3.79
2023-03-18T23:38:15.058Z,3.78
2023-03-18T23:40:42.724Z,3.75
2023-03-18T23:43:10.459Z,3.74
2023-03-18T23:45:40.074Z,3.76
2023-03-18T23:48:08.121Z,3.76
2023-03-18T23:50:38.370Z,3.72
2023-03-18T23:53:05.973Z,3.69
2023-03-18T23:55:35.218Z,3.66
2023-03-18T23:58:03.209Z,3.63
